AirNav   Air Wisconsin Up To $57,000 Bonus
 
 1603 users online  

WN76 Bergseth Field Airport
Enumclaw, Washington, USA

GOING TO ENUMCLAW?


FAA INFORMATION EFFECTIVE 10 OCTOBER 2019

Location

FAA Identifier: WN76
Lat/Long: 47-14-36.8660N 121-55-28.3940W
47-14.614433N 121-55.473233W
47.2435739,-121.9245539
(estimated)
Elevation: 1100 ft. / 335 m (estimated)
Variation: 20E (1985)
From city: 4 miles NE of ENUMCLAW, WA
Time zone: UTC -7 (UTC -8 during Standard Time)
Zip code: 98022

Airport Operations

Airport use: Private use. Permission required prior to landing
Activation date: 05/1987
Control tower: no
ARTCC: SEATTLE CENTER
FSS: SEATTLE FLIGHT SERVICE STATION
Attendance: ON CALL ON CALL ON CALL
ON CALL CTC AMGR 425-999-0875.
Wind indicator: yes
Segmented circle: no

Airport Communications

WX AWOS-3 at PLU (17 nm SW): 128.575 (253-848-2748)
WX ASOS at RNT (19 nm NW): 126.95 (425-255-6080)

Nearby radio navigation aids

VOR radial/distance  VOR name  Freq  Var
SEAr107/19.4SEATTLE VORTAC116.8019E
TCMr061/23.2MCCHORD VORTAC109.6015E

 
NDB name  Hdg/Dist  Freq  Var  ID
LACOMAS045/29.432816ELAC .-.. .- -.-.

Airport Services

Runway Information

Runway 10/28

Dimensions: 2100 x 60 ft. / 640 x 18 m
Surface: turf/dirt
RUNWAY 10  RUNWAY 28
Traffic pattern: leftleft
Obstructions: 65 ft. hill100 ft. hill, 300 ft. from runway

Airport Ownership and Management from official FAA records

Ownership: Privately-owned
Owner: WALTER & EVELYN BERGSETH
31500 SE 408TH
ENUMCLAW, WA 98022
Phone 360-825-7345
Manager: KENNETH BERGSETH
31500 SE 408TH
ENUMCLAW, WA 98022
Phone (360) 825-7345
KEN BERGSETH- 360-825-7345 OPER10@YAHOO.COM - CELL 253-569-4861

Airport Operational Statistics

Aircraft based on the field: 3
Gliders airplanes: 3
    

Additional Remarks

ANIMALS ON & INVOF RY.
FOR CD CTC SEATTLE APCH AT 206-214-4794.

Instrument Procedures

There are no published instrument procedures at WN76.

Some nearby airports with instrument procedures:

S50 - Auburn Municipal Airport (13 nm W)
KPLU - Pierce County Airport - Thun Field (17 nm SW)
KRNT - Renton Municipal Airport (19 nm NW)
KSEA - Seattle-Tacoma International Airport (20 nm NW)
KBFI - Boeing Field/King County International Airport (23 nm NW)
 
Loc | Ops | Rwys | IFR | FBO | Links
Com | Nav | Svcs | Stats | Notes
Area around WN76 (Bergseth Field Airport)
 
Road maps at: MapQuest Bing Google
 
Aerial photo
WARNING: Photo may not be current or correct
Aerial photo of WN76 (Bergseth Field Airport)
Do you have a better or more recent aerial photo of Bergseth Field Airport that you would like to share? If so, please send us your photo.

 
Sectional chart

 
Airport distance calculator
Flying to Bergseth Field Airport? Find the distance to fly.

From to WN76

Sunrise and sunset
Times for 23-Oct-2019
 Local
(UTC-7)
 Zulu
(UTC)
Morning civil twilight07:0714:07
Sunrise07:3914:39
Sunset18:0501:05
Evening civil twilight18:3701:37

Current date and time
Zulu (UTC)  23-Oct-2019 14:13:58
Local (UTC-7)  23-Oct-2019 07:13:58
 
METAR
KPLU 
17nm SW 
231355Z AUTO 00000KT 1/4SM -DZ OVC002 04/04 A3048 RMK AO2
KRNT 
19nm NW 
231353Z AUTO 20003KT 5SM BR BKN003 05/04 A3050 RMK AO2 SLP331 T00500039
KSEA 
20nm NW 
231403Z 03006KT 1/2SM R16L/3500VP6000FT FG OVC001 08/06 A3049 RMK AO2 TWR VIS 10 T00830061 $
KTCM 
23nm W 
231358Z 18005KT 7SM CLR 02/02 A3048 RMK AO2A SLP327 T00210021 $
KSMP 
24nm E 
231358Z AUTO 21003KT 1SM BR VV001 01/00 A3040 RMK AO2 T00110000
KBFI 
24nm NW 
231353Z 00000KT 1 1/2SM BR OVC003 07/06 A3049 RMK AO2 SLP325 T00670056
KTIW 
27nm W 
231353Z AUTO 00000KT 8SM CLR 06/06 A3048 RMK AO2 SLP323 T00560056
KGRF 
28nm W 
231358Z 14003KT 4SM BR CLR 03/03 A3047 RMK AO2A VIS S 1 SLP324 T00320032 $
TAF
KSEA 
20nm NW 
231133Z 2312/2418 01006KT P6SM FEW012 FM231300 06004KT P6SM OVC012 FM231800 03005KT P6SM SCT012 FM232100 01004KT P6SM BKN250 FM241500 10003KT 2SM BR OVC004
KTCM 
23nm W 
231145Z 2311/2411 VRB06KT 8000 BR SKC QNH3042INS BECMG 2317/2318 01006KT 9999 NSW SCT010 BKN250 QNH3045INS BECMG 2320/2321 01009KT 9999 SCT250 QNH3042INS BECMG 2405/2406 VRB06KT 6000 BR SCT080 QNH3040INS TX14/2322Z TN04/2314Z
KBFI 
24nm NW 
231133Z 2312/2412 00000KT P6SM FEW015 FM231400 07002KT P6SM OVC015 FM231800 33003KT P6SM SCT015 FM240300 00000KT P6SM SCT250
NOTAMs
Click for the latest NOTAMs
NOTAMs are issued by the DoD/FAA and will open in a separate window not controlled by AirNav.

 

 
 

Would you like to see your business listed on this page?

 If your business provides an interesting product or service to pilots, flight crews, aircraft, or users of the Bergseth Field Airport, you should consider listing it here.  To start the listing process, click on the button below
 
Add a business
 

Other Pages about Bergseth Field Airport

Update a link
 
Copyright © AirNav, LLC. All rights reserved. Privacy Policy  Contact